createdAt,value
2023-03-18T00:00:21.541Z,6.35
2023-03-18T00:02:52.885Z,6.32
2023-03-18T00:05:24.715Z,6.00
2023-03-18T00:07:56.792Z,6.10
2023-03-18T00:10:27.002Z,6.03
2023-03-18T00:12:57.357Z,6.05
2023-03-18T00:15:28.502Z,6.50
2023-03-18T00:18:01.218Z,6.53
2023-03-18T00:20:40.057Z,5.95
2023-03-18T00:23:11.840Z,6.18
2023-03-18T00:25:43.860Z,5.60
2023-03-18T00:28:17.324Z,6.45
2023-03-18T00:30:51.842Z,6.35
2023-03-18T00:33:24.822Z,6.30
2023-03-18T00:35:57.746Z,5.97
2023-03-18T00:38:28.068Z,6.68
2023-03-18T00:41:09.510Z,6.72
2023-03-18T00:43:57.562Z,7.45
2023-03-18T00:46:30.640Z,6.78
2023-03-18T00:49:07.444Z,6.07
2023-03-18T00:51:39.584Z,7.10
2023-03-18T00:54:13.847Z,5.70
2023-03-18T00:56:44.478Z,5.57
2023-03-18T00:59:14.853Z,6.45
2023-03-18T01:01:48.085Z,6.65
2023-03-18T01:04:20.812Z,6.57
2023-03-18T01:07:14.694Z,6.30
2023-03-18T01:09:45.087Z,5.75
2023-03-18T01:12:17.730Z,6.38
2023-03-18T01:14:49.927Z,6.30
2023-03-18T01:17:25.884Z,6.70
2023-03-18T01:19:56.894Z,6.75
2023-03-18T01:22:30.921Z,6.93
2023-03-18T01:25:08.502Z,6.32
2023-03-18T01:27:42.072Z,7.50
2023-03-18T01:30:13.227Z,6.88
2023-03-18T01:32:46.516Z,7.65
2023-03-18T01:35:17.574Z,6.88
2023-03-18T01:37:52.004Z,7.57
2023-03-18T01:40:23.613Z,8.60
2023-03-18T01:43:22.536Z,8.82
2023-03-18T01:45:56.000Z,6.88
2023-03-18T01:48:29.919Z,6.25
2023-03-18T01:51:12.207Z,6.65
2023-03-18T01:53:46.242Z,5.53
2023-03-18T01:56:18.447Z,6.63
2023-03-18T01:58:53.666Z,6.43
2023-03-18T02:01:35.978Z,6.55
2023-03-18T02:04:11.964Z,7.10
2023-03-18T02:06:45.937Z,6.57
2023-03-18T02:09:17.652Z,7.22
2023-03-18T02:14:29.307Z,7.65
2023-03-18T02:17:19.051Z,5.97
2023-03-18T02:20:07.407Z,6.68
2023-03-18T02:22:43.092Z,7.75
2023-03-18T02:25:34.780Z,7.55
2023-03-18T02:28:15.668Z,7.80
2023-03-18T02:30:51.546Z,6.57
2023-03-18T02:33:26.051Z,7.00
2023-03-18T02:36:05.352Z,7.50
2023-03-18T02:38:47.282Z,6.40
2023-03-18T02:41:27.933Z,7.93
2023-03-18T02:44:00.587Z,7.47
2023-03-18T02:47:17.436Z,8.38
2023-03-18T02:49:50.316Z,8.32
2023-03-18T02:52:22.137Z,8.60
2023-03-18T02:54:53.931Z,9.27
2023-03-18T02:57:53.321Z,6.70
2023-03-18T03:00:24.688Z,8.57
2023-03-18T03:02:56.070Z,6.78
2023-03-18T03:05:26.489Z,6.88
2023-03-18T03:07:57.780Z,7.32
2023-03-18T03:10:29.346Z,5.90
2023-03-18T03:13:01.768Z,7.13
2023-03-18T03:15:34.140Z,7.25
2023-03-18T03:18:06.445Z,7.65
2023-03-18T03:20:40.209Z,7.07
2023-03-18T03:23:14.872Z,7.65
2023-03-18T03:25:48.704Z,6.32
2023-03-18T03:28:20.746Z,8.75
2023-03-18T03:30:51.767Z,6.72
2023-03-18T03:33:23.168Z,7.95
2023-03-18T03:35:55.327Z,7.45
2023-03-18T03:38:26.014Z,7.40
2023-03-18T03:40:59.573Z,8.65
2023-03-18T03:43:31.089Z,10.23
2023-03-18T03:46:01.908Z,10.38
2023-03-18T03:48:34.514Z,10.10
2023-03-18T03:51:05.731Z,8.88
2023-03-18T03:53:38.322Z,7.68
2023-03-18T03:56:14.319Z,8.98
2023-03-18T03:58:46.295Z,8.63
2023-03-18T04:01:17.066Z,10.45
2023-03-18T04:03:49.927Z,8.95
2023-03-18T04:06:21.364Z,9.48
2023-03-18T04:09:01.536Z,8.45
2023-03-18T04:11:32.488Z,8.63
2023-03-18T04:14:03.340Z,10.20
2023-03-18T04:16:34.045Z,9.27
2023-03-18T04:19:05.333Z,8.88
2023-03-18T04:21:37.559Z,8.13
2023-03-18T04:24:09.650Z,9.23
2023-03-18T04:26:41.009Z,9.35
2023-03-18T04:29:13.078Z,7.72
2023-03-18T04:31:43.822Z,6.97
2023-03-18T04:34:15.871Z,6.90
2023-03-18T04:36:48.749Z,7.70
2023-03-18T04:39:20.485Z,7.88
2023-03-18T04:41:51.683Z,8.85
2023-03-18T04:44:22.412Z,7.97
2023-03-18T04:46:55.482Z,10.73
2023-03-18T04:49:28.607Z,10.82
2023-03-18T04:51:59.258Z,10.20
2023-03-18T04:54:34.230Z,8.82
2023-03-18T04:57:10.262Z,8.52
2023-03-18T04:59:47.540Z,10.05
2023-03-18T05:02:19.224Z,10.85
2023-03-18T05:04:51.263Z,9.45
2023-03-18T05:07:24.376Z,6.05
2023-03-18T05:10:03.422Z,3.20
2023-03-18T05:12:33.905Z,2.83
2023-03-18T05:15:06.251Z,2.50
2023-03-18T05:17:42.465Z,2.40
2023-03-18T05:20:14.852Z,1.85
2023-03-18T05:22:49.425Z,2.17
2023-03-18T05:25:31.313Z,2.15
2023-03-18T05:28:04.048Z,1.60
2023-03-18T05:30:44.603Z,2.10
2023-03-18T05:33:18.400Z,1.60
2023-03-18T05:35:57.811Z,1.70
2023-03-18T05:38:34.578Z,1.88
2023-03-18T05:41:06.672Z,1.80
2023-03-18T05:43:41.420Z,2.00
2023-03-18T05:46:12.049Z,1.52
2023-03-18T05:48:58.042Z,1.80
2023-03-18T05:51:34.490Z,1.50
2023-03-18T05:54:07.425Z,2.17
2023-03-18T05:56:45.438Z,1.58
2023-03-18T05:59:17.551Z,1.67
2023-03-18T06:01:57.632Z,1.50
2023-03-18T06:04:30.104Z,1.85
2023-03-18T06:07:02.574Z,2.22
2023-03-18T06:09:35.762Z,1.60
2023-03-18T06:12:07.647Z,1.90
2023-03-18T06:14:39.565Z,1.75
2023-03-18T06:17:12.406Z,1.40
2023-03-18T06:19:45.368Z,2.03
2023-03-18T06:22:17.663Z,1.75
2023-03-18T06:24:48.507Z,1.98
2023-03-18T06:27:21.829Z,3.03
2023-03-18T06:29:57.913Z,5.03
2023-03-18T06:32:30.291Z,5.88
2023-03-18T06:35:01.137Z,6.47
2023-03-18T06:37:34.328Z,8.80
2023-03-18T06:40:06.204Z,9.45
2023-03-18T06:42:37.020Z,9.20
2023-03-18T06:45:14.486Z,10.10
2023-03-18T06:48:03.797Z,9.13
2023-03-18T06:50:36.436Z,8.52
2023-03-18T06:53:09.927Z,9.77
2023-03-18T06:55:42.929Z,9.95
2023-03-18T06:58:15.138Z,8.82
2023-03-18T07:01:04.457Z,10.75
2023-03-18T07:03:40.557Z,8.75
2023-03-18T07:06:13.889Z,9.07
2023-03-18T07:08:46.577Z,8.18
2023-03-18T07:11:19.081Z,9.20
2023-03-18T07:13:50.288Z,9.00
2023-03-18T07:16:29.026Z,9.45
2023-03-18T07:19:03.269Z,8.93
2023-03-18T07:21:38.391Z,9.00
2023-03-18T07:24:09.348Z,7.63
2023-03-18T07:26:41.208Z,6.60
2023-03-18T07:29:13.584Z,5.18
2023-03-18T07:31:46.138Z,4.57
2023-03-18T07:34:19.100Z,4.03
2023-03-18T07:36:50.766Z,3.88
2023-03-18T07:39:21.293Z,5.28
2023-03-18T07:41:52.147Z,5.93
2023-03-18T07:44:32.484Z,6.22
2023-03-18T07:47:03.933Z,6.60
2023-03-18T07:49:34.264Z,6.90
2023-03-18T07:52:05.372Z,8.60
2023-03-18T07:54:35.468Z,8.95
2023-03-18T07:57:07.246Z,9.38
2023-03-18T07:59:39.936Z,8.50
2023-03-18T08:02:14.917Z,6.95
2023-03-18T08:04:49.225Z,6.10
2023-03-18T08:07:20.123Z,4.53
2023-03-18T08:09:52.661Z,3.65
2023-03-18T08:12:26.511Z,4.05
2023-03-18T08:14:57.721Z,4.97
2023-03-18T08:17:28.750Z,8.63
2023-03-18T08:19:59.767Z,8.57
2023-03-18T08:22:31.788Z,8.95
2023-03-18T08:25:02.790Z,8.73
2023-03-18T08:27:33.281Z,9.40
2023-03-18T08:30:04.275Z,9.43
2023-03-18T08:32:35.971Z,11.25
2023-03-18T08:35:06.642Z,10.88
2023-03-18T08:37:38.750Z,10.50
2023-03-18T08:40:11.186Z,8.43
2023-03-18T08:42:42.311Z,9.55
2023-03-18T08:45:14.577Z,10.75
2023-03-18T08:47:45.750Z,9.35
2023-03-18T08:50:18.449Z,9.88
2023-03-18T08:52:48.843Z,10.20
2023-03-18T08:55:19.448Z,9.68
2023-03-18T08:57:49.503Z,7.80
2023-03-18T09:00:20.408Z,8.50
2023-03-18T09:02:50.665Z,9.55
2023-03-18T09:05:22.228Z,9.43
2023-03-18T09:07:52.788Z,9.50
2023-03-18T09:10:22.879Z,11.90
2023-03-18T09:12:53.783Z,10.00
2023-03-18T09:15:24.317Z,10.93
2023-03-18T09:18:10.394Z,8.88
2023-03-18T09:20:44.436Z,8.68
2023-03-18T09:23:15.889Z,8.65
2023-03-18T09:25:48.917Z,8.02
2023-03-18T09:28:20.130Z,8.38
2023-03-18T09:30:51.492Z,8.48
2023-03-18T09:33:23.253Z,9.63
2023-03-18T09:35:56.035Z,8.55
2023-03-18T09:38:26.360Z,8.23
2023-03-18T09:41:02.808Z,7.28
2023-03-18T09:43:54.035Z,6.63
2023-03-18T09:46:58.477Z,6.60
2023-03-18T09:49:42.484Z,6.35
2023-03-18T09:52:22.801Z,6.85
2023-03-18T09:55:07.876Z,6.90
2023-03-18T09:57:46.590Z,6.93
2023-03-18T10:00:36.018Z,6.50
2023-03-18T10:03:15.902Z,5.53
2023-03-18T10:05:56.239Z,4.90
2023-03-18T10:08:38.865Z,6.30
2023-03-18T10:11:35.295Z,9.05
2023-03-18T10:14:28.237Z,10.82
2023-03-18T10:17:25.045Z,9.32
2023-03-18T10:20:05.891Z,8.32
2023-03-18T10:22:37.922Z,8.02
2023-03-18T10:25:26.610Z,9.90
2023-03-18T10:28:05.676Z,10.23
2023-03-18T10:30:44.146Z,12.25
2023-03-18T10:33:20.423Z,11.90
2023-03-18T10:35:59.461Z,9.50
2023-03-18T10:38:39.171Z,10.90
2023-03-18T10:41:33.707Z,12.07
2023-03-18T10:44:32.748Z,11.00
2023-03-18T10:47:18.563Z,9.20
2023-03-18T10:50:13.479Z,10.32
2023-03-18T10:52:50.413Z,9.60
2023-03-18T10:55:26.622Z,9.57
2023-03-18T10:57:57.238Z,8.32
2023-03-18T11:00:37.199Z,10.45
2023-03-18T11:03:10.089Z,10.07
2023-03-18T11:05:41.018Z,8.63
2023-03-18T11:08:38.289Z,9.65
2023-03-18T11:11:34.730Z,10.30
2023-03-18T11:14:10.347Z,10.30
2023-03-18T11:17:04.382Z,8.95
2023-03-18T11:19:40.077Z,7.95
2023-03-18T11:22:13.420Z,9.90
2023-03-18T11:24:45.092Z,10.20
2023-03-18T11:27:19.306Z,9.00
2023-03-18T11:30:01.959Z,9.35
2023-03-18T11:32:35.655Z,8.50
2023-03-18T11:35:10.805Z,8.73
2023-03-18T11:37:44.867Z,8.68
2023-03-18T11:40:29.919Z,8.13
2023-03-18T11:43:10.371Z,7.38
2023-03-18T11:46:01.356Z,9.13
2023-03-18T11:48:38.361Z,8.48
2023-03-18T11:51:27.959Z,9.27
2023-03-18T11:54:13.183Z,8.75
2023-03-18T11:56:52.320Z,9.13
2023-03-18T11:59:45.863Z,7.90
2023-03-18T12:02:44.232Z,7.43
2023-03-18T12:05:32.370Z,6.00
2023-03-18T12:08:20.276Z,6.35
2023-03-18T12:11:32.527Z,7.00
2023-03-18T12:17:06.300Z,8.35
2023-03-18T12:19:43.845Z,6.75
2023-03-18T12:22:26.615Z,6.22
2023-03-18T12:25:05.578Z,7.60
2023-03-18T12:30:49.314Z,5.95
2023-03-18T12:33:52.345Z,6.78
2023-03-18T12:36:46.657Z,5.47
2023-03-18T12:39:36.236Z,5.80
2023-03-18T12:42:31.018Z,6.55
2023-03-18T12:45:18.344Z,6.55
2023-03-18T12:48:36.976Z,6.55
2023-03-18T12:51:21.487Z,7.80
2023-03-18T12:53:56.218Z,6.45
2023-03-18T12:56:30.443Z,5.70
2023-03-18T12:59:09.578Z,6.25
2023-03-18T13:01:51.725Z,6.47
2023-03-18T13:04:26.783Z,6.45
2023-03-18T13:07:25.051Z,6.10
2023-03-18T13:10:10.605Z,6.20
2023-03-18T13:12:47.994Z,5.15
2023-03-18T13:15:30.640Z,5.75
2023-03-18T13:18:26.079Z,6.80
2023-03-18T13:21:01.727Z,6.60
2023-03-18T13:24:02.805Z,6.32
2023-03-18T13:26:38.501Z,5.03
2023-03-18T13:29:19.007Z,6.80
2023-03-18T13:32:17.842Z,6.53
2023-03-18T13:35:22.156Z,5.88
2023-03-18T13:38:10.438Z,6.65
2023-03-18T13:41:07.813Z,5.50
2023-03-18T13:43:43.788Z,6.45
2023-03-18T13:46:25.496Z,5.35
2023-03-18T13:49:01.803Z,6.03
2023-03-18T13:51:32.895Z,4.97
2023-03-18T13:54:10.962Z,4.90
2023-03-18T13:56:45.814Z,5.50
2023-03-18T13:59:38.367Z,6.40
2023-03-18T14:02:33.475Z,6.50
2023-03-18T14:05:04.639Z,5.57
2023-03-18T14:07:51.705Z,6.07
2023-03-18T14:10:22.657Z,6.05
2023-03-18T14:12:54.448Z,5.80
2023-03-18T14:15:46.495Z,5.18
2023-03-18T14:18:27.872Z,5.55
2023-03-18T14:21:03.301Z,4.90
2023-03-18T14:23:40.938Z,5.60
2023-03-18T14:26:24.276Z,6.90
2023-03-18T14:29:11.416Z,5.25
2023-03-18T14:31:42.971Z,5.03
2023-03-18T14:34:19.162Z,5.97
2023-03-18T14:36:56.128Z,6.43
2023-03-18T14:39:29.579Z,6.15
2023-03-18T14:42:03.643Z,6.78
2023-03-18T14:44:53.572Z,5.68
2023-03-18T14:47:39.313Z,4.72
2023-03-18T14:50:31.623Z,5.28
2023-03-18T14:53:13.813Z,8.43
2023-03-18T14:55:46.376Z,6.95
2023-03-18T14:58:22.143Z,4.95
2023-03-18T15:00:56.516Z,5.80
2023-03-18T15:03:34.080Z,5.45
2023-03-18T15:06:09.632Z,5.75
2023-03-18T15:08:48.059Z,5.97
2023-03-18T15:11:22.420Z,6.13
2023-03-18T15:13:59.923Z,10.00
2023-03-18T15:16:38.002Z,9.75
2023-03-18T15:19:14.882Z,6.22
2023-03-18T15:21:47.355Z,5.60
2023-03-18T15:24:23.761Z,6.00
2023-03-18T15:27:07.180Z,9.00
2023-03-18T15:29:53.730Z,7.25
2023-03-18T15:35:26.270Z,6.00
2023-03-18T15:38:09.392Z,4.68
2023-03-18T15:40:52.066Z,4.68
2023-03-18T15:43:44.844Z,7.60
2023-03-18T15:46:25.569Z,5.32
2023-03-18T15:48:57.911Z,5.47
2023-03-18T15:51:35.791Z,6.40
2023-03-18T15:54:17.518Z,5.15
2023-03-18T15:56:53.982Z,5.32
2023-03-18T15:59:34.798Z,4.90
2023-03-18T16:02:08.356Z,4.80
2023-03-18T16:04:40.604Z,5.03
2023-03-18T16:07:24.481Z,4.13
2023-03-18T16:09:56.162Z,4.65
2023-03-18T16:12:28.769Z,4.38
2023-03-18T16:15:00.704Z,4.00
2023-03-18T16:17:32.710Z,4.45
2023-03-18T16:20:05.688Z,3.88
2023-03-18T16:22:37.378Z,4.50
2023-03-18T16:25:09.869Z,4.38
2023-03-18T16:27:42.792Z,2.75
2023-03-18T16:30:20.448Z,3.42
2023-03-18T16:32:52.027Z,4.72
2023-03-18T16:35:26.957Z,3.65
2023-03-18T16:37:58.796Z,4.00
2023-03-18T16:40:33.591Z,4.95
2023-03-18T16:43:04.569Z,4.00
2023-03-18T16:45:36.981Z,4.25
2023-03-18T16:48:09.521Z,3.90
2023-03-18T16:50:44.964Z,3.33
2023-03-18T16:53:28.655Z,3.85
2023-03-18T16:56:20.644Z,3.25
2023-03-18T16:58:53.245Z,3.90
2023-03-18T17:01:26.306Z,4.18
2023-03-18T17:03:56.885Z,3.20
2023-03-18T17:06:28.614Z,3.33
2023-03-18T17:08:59.101Z,3.03
2023-03-18T17:11:30.669Z,4.47
2023-03-18T17:14:02.191Z,3.88
2023-03-18T17:16:33.496Z,4.28
2023-03-18T17:19:04.489Z,4.18
2023-03-18T17:21:34.942Z,4.10
2023-03-18T17:24:06.879Z,4.60
2023-03-18T17:26:37.638Z,4.50
2023-03-18T17:29:11.064Z,4.43
2023-03-18T17:31:42.766Z,4.85
2023-03-18T17:34:18.359Z,4.90
2023-03-18T17:36:49.347Z,4.47
2023-03-18T17:39:20.869Z,3.65
2023-03-18T17:41:51.550Z,4.95
2023-03-18T17:44:28.480Z,3.88
2023-03-18T17:47:01.795Z,5.72
2023-03-18T17:49:32.743Z,4.38
2023-03-18T17:52:03.802Z,4.15
2023-03-18T17:54:35.629Z,4.43
2023-03-18T17:57:06.016Z,5.28
2023-03-18T17:59:36.352Z,4.47
2023-03-18T18:02:11.994Z,3.80
2023-03-18T18:04:43.993Z,2.90
2023-03-18T18:07:26.884Z,4.22
2023-03-18T18:09:58.501Z,4.13
2023-03-18T18:12:30.084Z,4.28
2023-03-18T18:15:01.640Z,4.78
2023-03-18T18:17:32.180Z,4.97
2023-03-18T18:20:02.992Z,4.88
2023-03-18T18:22:34.190Z,4.07
2023-03-18T18:25:05.739Z,5.13
2023-03-18T18:27:37.156Z,4.78
2023-03-18T18:30:10.400Z,5.25
2023-03-18T18:32:41.319Z,4.97
2023-03-18T18:35:17.987Z,5.22
2023-03-18T18:37:50.754Z,5.40
2023-03-18T18:40:22.203Z,5.30
2023-03-18T18:42:52.624Z,4.50
2023-03-18T18:45:24.574Z,4.95
2023-03-18T18:47:55.708Z,4.78
2023-03-18T18:50:34.596Z,5.40
2023-03-18T18:53:14.687Z,5.70
2023-03-18T18:55:45.727Z,5.13
2023-03-18T18:58:21.508Z,5.13
2023-03-18T19:00:52.984Z,6.07
2023-03-18T19:03:33.812Z,5.18
2023-03-18T19:06:06.285Z,5.50
2023-03-18T19:08:38.938Z,4.60
2023-03-18T19:11:10.350Z,4.47
2023-03-18T19:13:41.358Z,4.75
2023-03-18T19:16:31.371Z,4.53
2023-03-18T19:19:02.503Z,5.55
2023-03-18T19:21:34.045Z,4.82
2023-03-18T19:24:04.335Z,3.80
2023-03-18T19:26:35.660Z,5.15
2023-03-18T19:29:07.145Z,4.82
2023-03-18T19:31:38.653Z,4.75
2023-03-18T19:34:21.471Z,3.92
2023-03-18T19:36:58.694Z,4.38
2023-03-18T19:39:32.688Z,4.55
2023-03-18T19:42:03.228Z,4.97
2023-03-18T19:44:34.279Z,3.70
2023-03-18T19:47:06.340Z,5.07
2023-03-18T19:49:40.708Z,4.35
2023-03-18T19:52:40.606Z,4.47
2023-03-18T19:55:16.686Z,3.67
2023-03-18T19:57:51.536Z,4.97
2023-03-18T20:00:27.306Z,4.97
2023-03-18T20:02:59.699Z,3.83
2023-03-18T20:05:31.742Z,4.45
2023-03-18T20:08:02.355Z,4.95
2023-03-18T20:10:34.190Z,4.32
2023-03-18T20:13:04.494Z,5.55
2023-03-18T20:15:35.454Z,5.68
2023-03-18T20:18:07.744Z,5.32
2023-03-18T20:20:39.383Z,4.22
2023-03-18T20:23:16.569Z,5.50
2023-03-18T20:25:49.234Z,5.10
2023-03-18T20:28:25.172Z,5.78
2023-03-18T20:30:59.362Z,5.28
2023-03-18T20:33:30.928Z,4.30
2023-03-18T20:36:01.614Z,4.72
2023-03-18T20:38:38.860Z,4.90
2023-03-18T20:41:10.688Z,4.82
2023-03-18T20:43:42.170Z,4.78
2023-03-18T20:46:17.850Z,4.03
2023-03-18T20:48:50.685Z,6.25
2023-03-18T20:51:29.017Z,4.93
2023-03-18T20:54:00.261Z,6.28
2023-03-18T20:56:40.994Z,5.10
2023-03-18T20:59:14.272Z,5.20
2023-03-18T21:01:45.098Z,6.43
2023-03-18T21:04:16.119Z,5.72
2023-03-18T21:06:48.436Z,5.25
2023-03-18T21:09:18.913Z,5.75
2023-03-18T21:11:50.749Z,5.80
2023-03-18T21:14:22.837Z,5.78
2023-03-18T21:16:53.270Z,5.68
2023-03-18T21:19:23.336Z,6.65
2023-03-18T21:21:54.296Z,6.15
2023-03-18T21:24:31.676Z,6.65
2023-03-18T21:27:05.152Z,7.00
2023-03-18T21:29:36.513Z,6.80
2023-03-18T21:32:07.566Z,7.72
2023-03-18T21:34:37.914Z,8.35
2023-03-18T21:37:16.897Z,8.25
2023-03-18T21:39:48.333Z,7.18
2023-03-18T21:42:25.317Z,8.48
2023-03-18T21:44:58.740Z,14.32
2023-03-18T21:47:30.131Z,7.45
2023-03-18T21:50:00.572Z,6.63
2023-03-18T21:52:37.340Z,8.18
2023-03-18T21:55:09.990Z,8.07
2023-03-18T21:57:42.491Z,6.82
2023-03-18T22:00:21.453Z,6.60
2023-03-18T22:02:53.148Z,7.57
2023-03-18T22:05:25.932Z,8.00
2023-03-18T22:07:57.688Z,7.30
2023-03-18T22:10:27.778Z,7.43
2023-03-18T22:12:59.045Z,6.57
2023-03-18T22:15:38.645Z,8.00
2023-03-18T22:18:13.419Z,9.68
2023-03-18T22:20:46.990Z,9.48
2023-03-18T22:23:31.991Z,10.25
2023-03-18T22:26:03.133Z,9.25
2023-03-18T22:28:34.654Z,9.32
2023-03-18T22:31:06.117Z,8.63
2023-03-18T22:33:37.857Z,10.45
2023-03-18T22:36:10.230Z,11.27
2023-03-18T22:38:40.514Z,11.00
2023-03-18T22:41:33.977Z,11.93
2023-03-18T22:44:05.010Z,12.40
2023-03-18T22:46:35.210Z,10.73
2023-03-18T22:49:09.526Z,7.65
2023-03-18T22:51:43.073Z,5.88
2023-03-18T22:54:20.418Z,3.35
2023-03-18T22:56:50.474Z,3.50
2023-03-18T22:59:20.576Z,2.90
2023-03-18T23:01:55.182Z,2.60
2023-03-18T23:04:29.385Z,2.67
2023-03-18T23:07:00.711Z,2.60
2023-03-18T23:09:34.702Z,2.13
2023-03-18T23:12:07.158Z,2.47
2023-03-18T23:14:39.782Z,2.60
2023-03-18T23:17:17.109Z,1.83
2023-03-18T23:23:49.046Z,1.88
2023-03-18T23:26:21.716Z,1.60
2023-03-18T23:28:52.049Z,2.08
2023-03-18T23:31:22.480Z,2.40
2023-03-18T23:33:53.730Z,2.13
2023-03-18T23:36:24.044Z,2.42
2023-03-18T23:38:55.071Z,2.53
2023-03-18T23:41:30.028Z,1.83
2023-03-18T23:46:30.001Z,1.60
2023-03-18T23:49:02.274Z,1.65
2023-03-18T23:51:33.051Z,2.20
2023-03-18T23:54:04.545Z,1.90
2023-03-18T23:56:35.129Z,1.92
2023-03-18T23:59:05.044Z,2.30
